sensor_id;sensor_type;location;lat;lon;timestamp;pressure;altitude;pressure_sealevel;temperature;humidity
39295;BME280;52361;52.100;5.248;2023-01-28T00:01:04;102917.0;;;4.87;97.7
39295;BME280;52361;52.100;5.248;2023-01-28T00:02:40;102917.0;;;4.92;96.77
39295;BME280;52361;52.100;5.248;2023-01-28T00:04:17;102925.0;;;4.99;95.87
39295;BME280;52361;52.100;5.248;2023-01-28T00:06:00;102922.0;;;4.82;95.56
39295;BME280;52361;52.100;5.248;2023-01-28T00:09:14;102924.0;;;4.72;96.93
39295;BME280;52361;52.100;5.248;2023-01-28T00:12:26;102928.0;;;4.84;96.54
39295;BME280;52361;52.100;5.248;2023-01-28T00:15:40;102933.99999999999;;;5.04;96.45
39295;BME280;52361;52.100;5.248;2023-01-28T00:17:17;102936.99999999999;;;5.03;96.39
39295;BME280;52361;52.100;5.248;2023-01-28T00:18:53;102933.0;;;5.04;96.61
39295;BME280;52361;52.100;5.248;2023-01-28T00:20:30;102932.0;;;4.96;97.28
39295;BME280;52361;52.100;5.248;2023-01-28T00:23:49;102928.0;;;5.12;96.26
39295;BME280;52361;52.100;5.248;2023-01-28T00:25:26;102931.0;;;5.09;96.37
39295;BME280;52361;52.100;5.248;2023-01-28T00:27:02;102933.0;;;4.95;97.87
39295;BME280;52361;52.100;5.248;2023-01-28T00:30:16;102927.0;;;5.07;97.97
39295;BME280;52361;52.100;5.248;2023-01-28T00:31:53;102927.0;;;5.01;96.23
39295;BME280;52361;52.100;5.248;2023-01-28T00:33:30;102928.0;;;5.04;96.02
39295;BME280;52361;52.100;5.248;2023-01-28T00:35:08;102921.0;;;5.0;96.37
39295;BME280;52361;52.100;5.248;2023-01-28T00:38:20;102924.0;;;4.97;96.6
39295;BME280;52361;52.100;5.248;2023-01-28T00:39:57;102930.0;;;4.97;95.76
39295;BME280;52361;52.100;5.248;2023-01-28T00:41:33;102926.0;;;4.88;95.64
39295;BME280;52361;52.100;5.248;2023-01-28T00:44:45;102924.0;;;4.95;95.12
39295;BME280;52361;52.100;5.248;2023-01-28T00:46:22;102925.0;;;4.83;94.72
39295;BME280;52361;52.100;5.248;2023-01-28T00:47:59;102924.0;;;4.84;93.47
39295;BME280;52361;52.100;5.248;2023-01-28T00:51:14;102928.0;;;4.87;93.78
39295;BME280;52361;52.100;5.248;2023-01-28T00:52:51;102929.0;;;4.95;93.86
39295;BME280;52361;52.100;5.248;2023-01-28T00:54:27;102929.0;;;4.96;94.21
39295;BME280;52361;52.100;5.248;2023-01-28T00:56:04;102925.0;;;4.87;94.23
39295;BME280;52361;52.100;5.248;2023-01-28T00:59:18;102927.0;;;4.91;94.87
39295;BME280;52361;52.100;5.248;2023-01-28T01:00:55;102919.0;;;4.99;94.11
39295;BME280;52361;52.100;5.248;2023-01-28T01:02:32;102926.0;;;4.67;94.3
39295;BME280;52361;52.100;5.248;2023-01-28T01:05:44;102922.0;;;4.68;94.19
39295;BME280;52361;52.100;5.248;2023-01-28T01:07:22;102916.00000000001;;;4.66;94.43
39295;BME280;52361;52.100;5.248;2023-01-28T01:09:00;102917.0;;;4.66;94.15
39295;BME280;52361;52.100;5.248;2023-01-28T01:12:13;102915.00000000001;;;4.66;94.07
39295;BME280;52361;52.100;5.248;2023-01-28T01:13:51;102914.00000000001;;;4.82;92.94
39295;BME280;52361;52.100;5.248;2023-01-28T01:15:28;102909.99999999999;;;4.87;93.0
39295;BME280;52361;52.100;5.248;2023-01-28T01:17:04;102914.00000000001;;;4.82;91.86
39295;BME280;52361;52.100;5.248;2023-01-28T01:20:20;102919.0;;;4.78;91.92
39295;BME280;52361;52.100;5.248;2023-01-28T01:21:57;102921.0;;;4.87;92.05
39295;BME280;52361;52.100;5.248;2023-01-28T01:23:33;102918.0;;;4.62;92.78
39295;BME280;52361;52.100;5.248;2023-01-28T01:26:49;102917.0;;;4.86;92.76
39295;BME280;52361;52.100;5.248;2023-01-28T01:28:25;102917.0;;;4.78;92.37
39295;BME280;52361;52.100;5.248;2023-01-28T01:30:01;102921.0;;;4.84;91.95
39295;BME280;52361;52.100;5.248;2023-01-28T01:31:38;102920.0;;;4.83;92.78
39295;BME280;52361;52.100;5.248;2023-01-28T01:34:51;102920.0;;;4.92;92.13
39295;BME280;52361;52.100;5.248;2023-01-28T01:36:28;102920.0;;;4.93;92.2
39295;BME280;52361;52.100;5.248;2023-01-28T01:38:05;102920.0;;;4.93;92.26
39295;BME280;52361;52.100;5.248;2023-01-28T01:41:23;102922.0;;;4.87;91.75
39295;BME280;52361;52.100;5.248;2023-01-28T01:43:00;102920.0;;;4.87;92.25
39295;BME280;52361;52.100;5.248;2023-01-28T01:44:56;102928.0;;;4.74;93.24
39295;BME280;52361;52.100;5.248;2023-01-28T01:46:36;102929.0;;;4.71;93.26
39295;BME280;52361;52.100;5.248;2023-01-28T01:48:20;102929.0;;;4.82;93.67
39295;BME280;52361;52.100;5.248;2023-01-28T01:51:42;102933.99999999999;;;4.8;94.05
39295;BME280;52361;52.100;5.248;2023-01-28T01:53:22;102938.00000000001;;;4.79;94.43
39295;BME280;52361;52.100;5.248;2023-01-28T01:55:04;102939.00000000001;;;4.78;94.88
39295;BME280;52361;52.100;5.248;2023-01-28T01:56:47;102941.00000000001;;;4.78;94.0
39295;BME280;52361;52.100;5.248;2023-01-28T02:00:10;102941.00000000001;;;4.8;93.66
39295;BME280;52361;52.100;5.248;2023-01-28T02:01:46;102934.99999999999;;;4.74;95.03
39295;BME280;52361;52.100;5.248;2023-01-28T02:03:26;102933.99999999999;;;4.72;94.67
39295;BME280;52361;52.100;5.248;2023-01-28T02:05:07;102932.0;;;4.82;93.18
39295;BME280;52361;52.100;5.248;2023-01-28T02:08:22;102932.0;;;4.88;92.82
39295;BME280;52361;52.100;5.248;2023-01-28T02:09:58;102932.0;;;5.07;92.08
39295;BME280;52361;52.100;5.248;2023-01-28T02:11:35;102939.00000000001;;;4.97;92.99
39295;BME280;52361;52.100;5.248;2023-01-28T02:21:30;102930.0;;;4.93;93.83
39295;BME280;52361;52.100;5.248;2023-01-28T02:22:25;102932.0;;;4.95;94.06
39295;BME280;52361;52.100;5.248;2023-01-28T02:25:31;102934.99999999999;;;4.78;94.58
39295;BME280;52361;52.100;5.248;2023-01-28T02:27:23;102933.0;;;4.7;95.56
39295;BME280;52361;52.100;5.248;2023-01-28T02:29:08;102932.0;;;4.82;95.64
39295;BME280;52361;52.100;5.248;2023-01-28T02:30:53;102942.0;;;4.71;96.26
39295;BME280;52361;52.100;5.248;2023-01-28T02:32:41;102955.0;;;4.75;96.41
39295;BME280;52361;52.100;5.248;2023-01-28T02:34:30;102946.0;;;4.82;96.46
39295;BME280;52361;52.100;5.248;2023-01-28T02:38:04;102949.0;;;4.86;96.18
39295;BME280;52361;52.100;5.248;2023-01-28T02:39:48;102949.0;;;4.78;96.59
39295;BME280;52361;52.100;5.248;2023-01-28T02:41:33;102955.0;;;4.84;95.9
39295;BME280;52361;52.100;5.248;2023-01-28T02:43:13;102949.0;;;4.82;97.16
39295;BME280;52361;52.100;5.248;2023-01-28T02:44:50;102947.0;;;4.74;96.97
39295;BME280;52361;52.100;5.248;2023-01-28T02:49:38;102955.0;;;4.53;97.67
39295;BME280;52361;52.100;5.248;2023-01-28T02:51:24;102954.0;;;4.72;97.33
39295;BME280;52361;52.100;5.248;2023-01-28T02:53:44;102950.0;;;4.71;97.15
39295;BME280;52361;52.100;5.248;2023-01-28T02:55:53;102946.0;;;4.59;97.1
39295;BME280;52361;52.100;5.248;2023-01-28T02:57:37;102953.0;;;4.67;97.23
39295;BME280;52361;52.100;5.248;2023-01-28T02:59:34;102950.0;;;4.67;96.33
39295;BME280;52361;52.100;5.248;2023-01-28T03:03:08;102942.0;;;4.75;96.29
39295;BME280;52361;52.100;5.248;2023-01-28T03:04:57;102934.99999999999;;;4.86;96.12
39295;BME280;52361;52.100;5.248;2023-01-28T03:06:40;102933.0;;;4.62;95.92
39295;BME280;52361;52.100;5.248;2023-01-28T03:09:26;102931.0;;;4.82;96.01
39295;BME280;52361;52.100;5.248;2023-01-28T03:36:54;102944.0;;;4.66;95.51
39295;BME280;52361;52.100;5.248;2023-01-28T03:38:33;102945.0;;;4.78;94.87
39295;BME280;52361;52.100;5.248;2023-01-28T03:40:18;102943.0;;;4.75;94.44
39295;BME280;52361;52.100;5.248;2023-01-28T03:41:57;102941.00000000001;;;4.76;94.32
39295;BME280;52361;52.100;5.248;2023-01-28T03:43:35;102940.00000000001;;;4.7;94.5
39295;BME280;52361;52.100;5.248;2023-01-28T03:46:50;102940.00000000001;;;4.71;94.76
39295;BME280;52361;52.100;5.248;2023-01-28T03:48:27;102942.0;;;4.7;94.6
39295;BME280;52361;52.100;5.248;2023-01-28T03:50:06;102940.00000000001;;;4.57;95.41
39295;BME280;52361;52.100;5.248;2023-01-28T03:51:45;102942.0;;;4.63;94.68
39295;BME280;52361;52.100;5.248;2023-01-28T03:54:58;102943.0;;;4.7;93.6
39295;BME280;52361;52.100;5.248;2023-01-28T03:56:36;102946.0;;;4.66;94.36
39295;BME280;52361;52.100;5.248;2023-01-28T03:58:13;102947.0;;;4.71;94.74
39295;BME280;52361;52.100;5.248;2023-01-28T04:01:29;102951.0;;;4.68;94.98
39295;BME280;52361;52.100;5.248;2023-01-28T04:03:16;102947.0;;;4.54;94.66
39295;BME280;52361;52.100;5.248;2023-01-28T04:04:53;102943.0;;;4.54;96.17
39295;BME280;52361;52.100;5.248;2023-01-28T04:06:30;102944.0;;;4.62;95.97
39295;BME280;52361;52.100;5.248;2023-01-28T04:09:42;102944.0;;;4.66;95.21
39295;BME280;52361;52.100;5.248;2023-01-28T04:11:20;102947.0;;;4.49;94.66
39295;BME280;52361;52.100;5.248;2023-01-28T04:12:56;102954.0;;;4.67;92.95
39295;BME280;52361;52.100;5.248;2023-01-28T04:16:09;102952.0;;;4.74;92.56
39295;BME280;52361;52.100;5.248;2023-01-28T04:17:46;102959.99999999999;;;4.63;92.39
39295;BME280;52361;52.100;5.248;2023-01-28T04:19:24;102961.99999999999;;;4.66;91.79
39295;BME280;52361;52.100;5.248;2023-01-28T04:21:00;102965.00000000001;;;4.7;92.33
39295;BME280;52361;52.100;5.248;2023-01-28T04:25:49;102967.0;;;4.61;93.01
39295;BME280;52361;52.100;5.248;2023-01-28T04:27:26;102964.00000000001;;;4.62;92.83
39295;BME280;52361;52.100;5.248;2023-01-28T04:30:38;102969.0;;;4.53;92.91
39295;BME280;52361;52.100;5.248;2023-01-28T04:32:14;102977.0;;;4.53;93.17
39295;BME280;52361;52.100;5.248;2023-01-28T04:33:51;102975.0;;;4.49;92.88
39295;BME280;52361;52.100;5.248;2023-01-28T04:37:03;102983.99999999999;;;4.53;93.39
39295;BME280;52361;52.100;5.248;2023-01-28T04:38:39;102980.0;;;4.57;92.56
39295;BME280;52361;52.100;5.248;2023-01-28T04:40:16;102983.99999999999;;;4.64;92.17
39295;BME280;52361;52.100;5.248;2023-01-28T04:43:28;102983.0;;;4.45;91.96
39295;BME280;52361;52.100;5.248;2023-01-28T04:45:06;102986.99999999999;;;4.33;92.52
39295;BME280;52361;52.100;5.248;2023-01-28T04:46:43;102981.0;;;4.49;92.33
39295;BME280;52361;52.100;5.248;2023-01-28T04:48:19;102974.0;;;4.42;93.61
39295;BME280;52361;52.100;5.248;2023-01-28T04:51:31;102972.0;;;4.55;92.47
39295;BME280;52361;52.100;5.248;2023-01-28T04:53:07;102961.99999999999;;;4.5;93.82
39295;BME280;52361;52.100;5.248;2023-01-28T04:54:44;102961.99999999999;;;4.58;93.16
39295;BME280;52361;52.100;5.248;2023-01-28T04:57:58;102967.0;;;4.57;92.2
39295;BME280;52361;52.100;5.248;2023-01-28T04:59:34;102964.00000000001;;;4.58;92.12
39295;BME280;52361;52.100;5.248;2023-01-28T05:01:10;102964.00000000001;;;4.62;91.94
39295;BME280;52361;52.100;5.248;2023-01-28T05:04:22;102959.99999999999;;;4.66;91.49
39295;BME280;52361;52.100;5.248;2023-01-28T05:05:58;102958.99999999999;;;4.57;90.67
39295;BME280;52361;52.100;5.248;2023-01-28T05:07:35;102961.99999999999;;;4.21;90.51
39295;BME280;52361;52.100;5.248;2023-01-28T05:09:12;102966.00000000001;;;4.38;88.76
39295;BME280;52361;52.100;5.248;2023-01-28T05:12:24;102966.00000000001;;;4.43;89.13
39295;BME280;52361;52.100;5.248;2023-01-28T05:14:01;102959.99999999999;;;4.43;89.44
39295;BME280;52361;52.100;5.248;2023-01-28T05:15:37;102963.00000000001;;;4.32;90.19
39295;BME280;52361;52.100;5.248;2023-01-28T05:18:50;102958.0;;;4.39;88.96
39295;BME280;52361;52.100;5.248;2023-01-28T05:20:26;102958.99999999999;;;4.37;88.32
39295;BME280;52361;52.100;5.248;2023-01-28T05:22:02;102958.0;;;4.18;87.87
39295;BME280;52361;52.100;5.248;2023-01-28T05:25:14;102958.0;;;4.34;89.49
39295;BME280;52361;52.100;5.248;2023-01-28T05:26:50;102958.0;;;4.36;89.0
39295;BME280;52361;52.100;5.248;2023-01-28T05:28:27;102967.0;;;4.36;88.99
39295;BME280;52361;52.100;5.248;2023-01-28T05:30:06;102963.00000000001;;;4.32;88.82
39295;BME280;52361;52.100;5.248;2023-01-28T05:33:19;102961.99999999999;;;4.34;89.37
39295;BME280;52361;52.100;5.248;2023-01-28T05:34:55;102968.0;;;4.41;88.88
39295;BME280;52361;52.100;5.248;2023-01-28T05:36:31;102965.00000000001;;;4.32;88.97
39295;BME280;52361;52.100;5.248;2023-01-28T05:39:44;102969.0;;;4.3;87.79
39295;BME280;52361;52.100;5.248;2023-01-28T05:41:20;102967.0;;;4.3;89.48
39295;BME280;52361;52.100;5.248;2023-01-28T05:42:56;102958.99999999999;;;4.25;88.72
39295;BME280;52361;52.100;5.248;2023-01-28T05:46:08;102958.99999999999;;;4.16;89.56
39295;BME280;52361;52.100;5.248;2023-01-28T05:47:44;102966.00000000001;;;4.16;88.79
39295;BME280;52361;52.100;5.248;2023-01-28T05:49:21;102961.99999999999;;;4.24;89.34
39295;BME280;52361;52.100;5.248;2023-01-28T05:50:58;102963.00000000001;;;4.12;89.01
39295;BME280;52361;52.100;5.248;2023-01-28T05:54:11;102955.0;;;4.17;88.92
39295;BME280;52361;52.100;5.248;2023-01-28T05:55:48;102965.00000000001;;;4.42;88.49
39295;BME280;52361;52.100;5.248;2023-01-28T05:57:24;102963.00000000001;;;4.21;88.87
39295;BME280;52361;52.100;5.248;2023-01-28T06:00:37;102958.99999999999;;;4.37;88.9
39295;BME280;52361;52.100;5.248;2023-01-28T06:02:14;102963.00000000001;;;4.41;87.6
39295;BME280;52361;52.100;5.248;2023-01-28T06:03:50;102964.00000000001;;;4.32;88.22
39295;BME280;52361;52.100;5.248;2023-01-28T06:07:02;102967.0;;;4.29;87.5
39295;BME280;52361;52.100;5.248;2023-01-28T06:08:38;102961.99999999999;;;4.22;88.18
39295;BME280;52361;52.100;5.248;2023-01-28T06:10:17;102968.0;;;4.22;88.91
39295;BME280;52361;52.100;5.248;2023-01-28T06:11:53;102967.0;;;4.32;89.41
39295;BME280;52361;52.100;5.248;2023-01-28T06:15:06;102964.00000000001;;;4.32;89.12
39295;BME280;52361;52.100;5.248;2023-01-28T06:16:43;102967.0;;;4.26;88.9
39295;BME280;52361;52.100;5.248;2023-01-28T06:18:18;102967.0;;;4.37;89.01
39295;BME280;52361;52.100;5.248;2023-01-28T06:21:31;102968.0;;;4.41;89.11
39295;BME280;52361;52.100;5.248;2023-01-28T06:23:08;102967.0;;;4.28;89.31
39295;BME280;52361;52.100;5.248;2023-01-28T06:24:45;102968.0;;;4.16;89.46
39295;BME280;52361;52.100;5.248;2023-01-28T06:27:57;102967.0;;;4.28;87.93
39295;BME280;52361;52.100;5.248;2023-01-28T06:29:34;102967.0;;;4.28;88.81
39295;BME280;52361;52.100;5.248;2023-01-28T06:31:11;102967.0;;;4.25;88.32
39295;BME280;52361;52.100;5.248;2023-01-28T06:32:52;102968.0;;;4.16;88.53
39295;BME280;52361;52.100;5.248;2023-01-28T06:36:06;102970.0;;;4.16;88.98
39295;BME280;52361;52.100;5.248;2023-01-28T06:37:44;102965.00000000001;;;4.25;89.26
39295;BME280;52361;52.100;5.248;2023-01-28T06:39:20;102977.0;;;4.22;89.02
39295;BME280;52361;52.100;5.248;2023-01-28T06:42:34;102984.99999999999;;;4.32;88.67
39295;BME280;52361;52.100;5.248;2023-01-28T06:44:10;102984.99999999999;;;4.32;89.28
39295;BME280;52361;52.100;5.248;2023-01-28T06:45:47;102989.00000000001;;;4.34;89.47
39295;BME280;52361;52.100;5.248;2023-01-28T06:48:59;102990.00000000001;;;4.32;89.53
39295;BME280;52361;52.100;5.248;2023-01-28T06:50:35;102983.99999999999;;;4.33;89.99
39295;BME280;52361;52.100;5.248;2023-01-28T06:52:11;102984.99999999999;;;4.24;90.98
39295;BME280;52361;52.100;5.248;2023-01-28T06:53:47;102990.00000000001;;;4.13;91.89
39295;BME280;52361;52.100;5.248;2023-01-28T06:57:00;102992.0;;;4.26;91.47
39295;BME280;52361;52.100;5.248;2023-01-28T06:58:36;102992.0;;;4.16;91.49
39295;BME280;52361;52.100;5.248;2023-01-28T07:00:15;102997.0;;;4.24;91.26
39295;BME280;52361;52.100;5.248;2023-01-28T07:03:27;102999.0;;;4.22;91.83
39295;BME280;52361;52.100;5.248;2023-01-28T07:05:04;103003.0;;;4.28;91.36
39295;BME280;52361;52.100;5.248;2023-01-28T07:06:40;102999.0;;;4.25;90.75
39295;BME280;52361;52.100;5.248;2023-01-28T07:09:53;103003.0;;;4.28;91.03
39295;BME280;52361;52.100;5.248;2023-01-28T07:11:29;102999.0;;;4.25;91.41
39295;BME280;52361;52.100;5.248;2023-01-28T07:13:05;102996.0;;;4.16;91.48
39295;BME280;52361;52.100;5.248;2023-01-28T07:14:41;102996.0;;;4.17;90.57
39295;BME280;52361;52.100;5.248;2023-01-28T07:17:53;102997.0;;;4.0;90.78
39295;BME280;52361;52.100;5.248;2023-01-28T07:19:29;102995.0;;;4.12;90.2
39295;BME280;52361;52.100;5.248;2023-01-28T07:21:07;103000.0;;;4.2;89.66
39295;BME280;52361;52.100;5.248;2023-01-28T07:24:20;103005.0;;;4.05;90.09
39295;BME280;52361;52.100;5.248;2023-01-28T07:26:00;103008.0;;;4.17;90.71
39295;BME280;52361;52.100;5.248;2023-01-28T07:27:36;103005.0;;;4.25;90.2
39295;BME280;52361;52.100;5.248;2023-01-28T07:30:49;103008.99999999999;;;4.12;90.37
39295;BME280;52361;52.100;5.248;2023-01-28T07:32:26;103011.99999999999;;;4.28;89.89
39295;BME280;52361;52.100;5.248;2023-01-28T07:34:02;103008.99999999999;;;4.21;89.87
39295;BME280;52361;52.100;5.248;2023-01-28T07:35:38;103015.00000000001;;;4.33;89.7
39295;BME280;52361;52.100;5.248;2023-01-28T07:38:51;103019.0;;;4.24;90.79
39295;BME280;52361;52.100;5.248;2023-01-28T07:40:27;103020.0;;;4.28;90.75
39295;BME280;52361;52.100;5.248;2023-01-28T07:42:04;103016.00000000001;;;4.22;90.12
39295;BME280;52361;52.100;5.248;2023-01-28T07:45:17;103022.0;;;4.16;90.04
39295;BME280;52361;52.100;5.248;2023-01-28T07:46:53;103023.0;;;4.03;92.5
39295;BME280;52361;52.100;5.248;2023-01-28T07:48:30;103025.0;;;4.21;91.67
39295;BME280;52361;52.100;5.248;2023-01-28T07:51:46;103021.0;;;4.2;91.42
39295;BME280;52361;52.100;5.248;2023-01-28T07:53:22;103023.0;;;4.17;90.88
39295;BME280;52361;52.100;5.248;2023-01-28T07:54:58;103039.00000000001;;;3.94;91.28
39295;BME280;52361;52.100;5.248;2023-01-28T07:56:34;103033.99999999999;;;3.87;91.47
39295;BME280;52361;52.100;5.248;2023-01-28T07:59:48;103033.0;;;4.12;91.31
39295;BME280;52361;52.100;5.248;2023-01-28T08:01:24;103028.0;;;4.16;90.22
39295;BME280;52361;52.100;5.248;2023-01-28T08:03:02;103029.0;;;4.22;90.49
39295;BME280;52361;52.100;5.248;2023-01-28T08:06:17;103036.99999999999;;;4.14;90.09
39295;BME280;52361;52.100;5.248;2023-01-28T08:07:53;103041.00000000001;;;4.21;90.95
39295;BME280;52361;52.100;5.248;2023-01-28T08:09:29;103043.0;;;4.34;91.09
39295;BME280;52361;52.100;5.248;2023-01-28T08:12:50;103039.00000000001;;;4.3;89.95
39295;BME280;52361;52.100;5.248;2023-01-28T08:14:26;103038.00000000001;;;4.07;88.72
39295;BME280;52361;52.100;5.248;2023-01-28T08:16:04;103042.0;;;4.16;88.7
39295;BME280;52361;52.100;5.248;2023-01-28T08:17:41;103039.00000000001;;;4.16;89.81
39295;BME280;52361;52.100;5.248;2023-01-28T08:20:54;103041.00000000001;;;4.1;91.21
39295;BME280;52361;52.100;5.248;2023-01-28T08:22:31;103038.00000000001;;;4.05;90.46
39295;BME280;52361;52.100;5.248;2023-01-28T08:24:07;103042.0;;;4.16;92.96
39295;BME280;52361;52.100;5.248;2023-01-28T08:27:20;103047.0;;;4.05;92.67
39295;BME280;52361;52.100;5.248;2023-01-28T08:28:56;103050.0;;;4.17;90.78
39295;BME280;52361;52.100;5.248;2023-01-28T08:30:33;103046.0;;;3.96;89.71
39295;BME280;52361;52.100;5.248;2023-01-28T08:32:10;103047.0;;;4.07;90.84
39295;BME280;52361;52.100;5.248;2023-01-28T08:36:58;103050.0;;;4.13;91.37
39295;BME280;52361;52.100;5.248;2023-01-28T08:38:34;103046.0;;;4.07;93.0
39295;BME280;52361;52.100;5.248;2023-01-28T08:41:48;103056.0;;;4.04;92.46
39295;BME280;52361;52.100;5.248;2023-01-28T08:43:24;103059.99999999999;;;3.96;90.78
39295;BME280;52361;52.100;5.248;2023-01-28T08:45:01;103065.00000000001;;;4.18;91.69
39295;BME280;52361;52.100;5.248;2023-01-28T08:48:14;103067.0;;;4.1;91.05
39295;BME280;52361;52.100;5.248;2023-01-28T08:49:52;103072.0;;;4.03;91.28
39295;BME280;52361;52.100;5.248;2023-01-28T08:51:28;103071.0;;;3.99;93.67
39295;BME280;52361;52.100;5.248;2023-01-28T08:53:07;103078.0;;;3.99;94.06
39295;BME280;52361;52.100;5.248;2023-01-28T08:56:21;103082.0;;;3.94;93.12
39295;BME280;52361;52.100;5.248;2023-01-28T08:58:01;103083.99999999999;;;3.99;93.28
39295;BME280;52361;52.100;5.248;2023-01-28T08:59:44;103079.0;;;4.09;93.32
39295;BME280;52361;52.100;5.248;2023-01-28T09:01:20;103074.0;;;4.07;91.71
39295;BME280;52361;52.100;5.248;2023-01-28T09:04:32;103080.0;;;4.12;92.99
39295;BME280;52361;52.100;5.248;2023-01-28T09:06:08;103083.99999999999;;;4.21;92.15
39295;BME280;52361;52.100;5.248;2023-01-28T09:07:45;103093.0;;;4.3;91.08
39295;BME280;52361;52.100;5.248;2023-01-28T09:10:58;103084.99999999999;;;4.32;91.54
39295;BME280;52361;52.100;5.248;2023-01-28T09:12:35;103073.0;;;4.37;92.17
39295;BME280;52361;52.100;5.248;2023-01-28T09:14:13;103081.0;;;4.43;90.63
39295;BME280;52361;52.100;5.248;2023-01-28T09:17:26;103079.0;;;4.53;89.98
39295;BME280;52361;52.100;5.248;2023-01-28T09:19:02;103082.0;;;4.5;89.11
39295;BME280;52361;52.100;5.248;2023-01-28T09:20:38;103092.0;;;4.62;88.63
39295;BME280;52361;52.100;5.248;2023-01-28T09:22:16;103091.00000000001;;;4.57;88.35
39295;BME280;52361;52.100;5.248;2023-01-28T09:25:31;103090.00000000001;;;4.47;89.17
39295;BME280;52361;52.100;5.248;2023-01-28T09:27:08;103101.0;;;4.37;88.78
39295;BME280;52361;52.100;5.248;2023-01-28T09:28:46;103098.0;;;4.45;88.6
39295;BME280;52361;52.100;5.248;2023-01-28T09:32:00;103097.0;;;4.42;88.98
39295;BME280;52361;52.100;5.248;2023-01-28T09:33:39;103107.0;;;4.41;89.95
39295;BME280;52361;52.100;5.248;2023-01-28T09:35:17;103100.0;;;4.33;89.59
39295;BME280;52361;52.100;5.248;2023-01-28T09:36:53;103098.0;;;4.37;90.84
39295;BME280;52361;52.100;5.248;2023-01-28T09:40:10;103105.0;;;4.46;90.53
39295;BME280;52361;52.100;5.248;2023-01-28T09:44:03;103109.99999999999;;;4.59;89.04
39295;BME280;52361;52.100;5.248;2023-01-28T09:45:43;103114.00000000001;;;4.74;89.12
39295;BME280;52361;52.100;5.248;2023-01-28T09:47:25;103108.0;;;4.75;88.23
39295;BME280;52361;52.100;5.248;2023-01-28T09:50:53;103095.0;;;4.99;86.68
39295;BME280;52361;52.100;5.248;2023-01-28T09:52:33;103100.0;;;5.12;87.43
39295;BME280;52361;52.100;5.248;2023-01-28T09:54:21;103100.0;;;5.18;85.33
39295;BME280;52361;52.100;5.248;2023-01-28T09:56:05;103102.0;;;5.11;85.05
39295;BME280;52361;52.100;5.248;2023-01-28T09:59:24;103106.0;;;5.35;85.11
39295;BME280;52361;52.100;5.248;2023-01-28T10:01:09;103102.0;;;5.58;85.54
39295;BME280;52361;52.100;5.248;2023-01-28T10:03:17;103108.0;;;5.85;84.49
39295;BME280;52361;52.100;5.248;2023-01-28T10:05:17;103117.0;;;6.07;83.71
39295;BME280;52361;52.100;5.248;2023-01-28T10:07:04;103119.0;;;6.31;81.13
39295;BME280;52361;52.100;5.248;2023-01-28T10:09:09;103123.0;;;6.33;78.83
39295;BME280;52361;52.100;5.248;2023-01-28T10:11:15;103120.0;;;6.37;78.28
39295;BME280;52361;52.100;5.248;2023-01-28T10:13:04;103118.0;;;6.4;76.92
39295;BME280;52361;52.100;5.248;2023-01-28T10:14:54;103119.0;;;6.62;78.28
39295;BME280;52361;52.100;5.248;2023-01-28T10:16:43;103121.0;;;6.78;78.59
39295;BME280;52361;52.100;5.248;2023-01-28T10:20:17;103120.0;;;6.72;78.83
39295;BME280;52361;52.100;5.248;2023-01-28T10:22:00;103116.00000000001;;;6.65;75.69
39295;BME280;52361;52.100;5.248;2023-01-28T10:23:45;103111.99999999999;;;6.51;77.14
39295;BME280;52361;52.100;5.248;2023-01-28T10:25:31;103105.0;;;6.85;78.39
39295;BME280;52361;52.100;5.248;2023-01-28T10:27:11;103099.0;;;7.02;76.45
39295;BME280;52361;52.100;5.248;2023-01-28T10:30:44;103097.0;;;7.25;75.44
39295;BME280;52361;52.100;5.248;2023-01-28T10:32:25;103091.00000000001;;;7.33;74.2
39295;BME280;52361;52.100;5.248;2023-01-28T10:34:04;103093.0;;;7.44;73.47
39295;BME280;52361;52.100;5.248;2023-01-28T10:35:41;103092.0;;;7.61;73.7
39295;BME280;52361;52.100;5.248;2023-01-28T10:38:55;103093.0;;;7.72;71.44
39295;BME280;52361;52.100;5.248;2023-01-28T10:40:32;103092.0;;;7.53;70.64
39295;BME280;52361;52.100;5.248;2023-01-28T10:42:21;103094.0;;;7.83;72.27
39295;BME280;52361;52.100;5.248;2023-01-28T10:44:02;103091.00000000001;;;7.97;71.44
39295;BME280;52361;52.100;5.248;2023-01-28T10:47:32;103086.99999999999;;;8.15;71.3
39295;BME280;52361;52.100;5.248;2023-01-28T10:49:15;103083.0;;;8.05;70.48
39295;BME280;52361;52.100;5.248;2023-01-28T10:50:55;103083.0;;;8.09;71.17
39295;BME280;52361;52.100;5.248;2023-01-28T10:52:32;103075.0;;;7.89;70.69
39295;BME280;52361;52.100;5.248;2023-01-28T10:56:04;103072.0;;;7.8;70.09
39295;BME280;52361;52.100;5.248;2023-01-28T10:57:43;103073.0;;;7.76;70.41
39295;BME280;52361;52.100;5.248;2023-01-28T10:59:24;103069.0;;;7.67;70.77
39295;BME280;52361;52.100;5.248;2023-01-28T11:01:04;103065.00000000001;;;7.61;70.74
39295;BME280;52361;52.100;5.248;2023-01-28T11:02:42;103058.99999999999;;;7.61;71.92
39295;BME280;52361;52.100;5.248;2023-01-28T11:06:00;103050.0;;;7.63;72.08
39295;BME280;52361;52.100;5.248;2023-01-28T11:07:37;103044.0;;;7.68;71.89
39295;BME280;52361;52.100;5.248;2023-01-28T11:09:22;103038.00000000001;;;7.64;70.94
39295;BME280;52361;52.100;5.248;2023-01-28T11:11:00;103025.0;;;7.6;73.11
39295;BME280;52361;52.100;5.248;2023-01-28T11:14:19;103023.0;;;7.45;71.39
39295;BME280;52361;52.100;5.248;2023-01-28T11:16:04;103024.0;;;7.36;73.24
39295;BME280;52361;52.100;5.248;2023-01-28T11:17:47;103026.0;;;7.43;73.42
39295;BME280;52361;52.100;5.248;2023-01-28T11:19:30;103018.0;;;7.55;72.58
39295;BME280;52361;52.100;5.248;2023-01-28T11:22:55;103006.0;;;7.67;71.63
39295;BME280;52361;52.100;5.248;2023-01-28T11:24:33;102998.0;;;7.73;69.8
39295;BME280;52361;52.100;5.248;2023-01-28T11:26:14;102991.00000000001;;;7.85;69.3
39295;BME280;52361;52.100;5.248;2023-01-28T11:27:53;102990.00000000001;;;7.95;70.16